PWSweather.com
Personal Weather Stations
Station Observations
KOHROME3
Rome, OH 44085

Rome, OH 44085

Lat: 41.631, Lon: -80.828

Elevation: 872

Station Type: Ambient Weather WS-2902 Osprey

http://44085weather.com

High Low Average
Temperature 37.9°F3.3°C 14.0°F-10.0°C 25.1°F-3.8°C
Dew Point 35.6°F2.0°C -23.2°F-30.7°C 15.5°F-9.2°C
Winds 5.8 mph 9.3 kmh Calm Calm 1.0 mph SE1.6 kmh SE
Wind Gusts 5.8 mph9.3 kmh -- 1.0 mph1.6 kmh
Humidity 100% 10% 77%
Pressure 30.12 in1020.0 mb 29.91 in1012.9 mb -
Precipitation 0.00 in0.0 mm - -
Hour Temp Dew Point Humidity Winds Wind Gusts Pressure Precip Precip Rate Daily Precip Total
12:00 AM 19.2°F-7.1°C 17.5°F-8.1°C 93% Calm Calm -- 30.15 in1021.0 mb - 0.00 in0.0 mm 0.00 in0.0 mm
12:10 AM 19.4°F-7.0°C 17.7°F-7.9°C 93% Calm Calm -- 30.15 in1021.0 mb - 0.00 in0.0 mm 0.00 in0.0 mm
12:15 AM 19.2°F-7.1°C 17.5°F-8.1°C 93% Calm Calm -- 30.15 in1021.0 mb - 0.00 in0.0 mm 0.00 in0.0 mm
12:20 AM 19.0°F-7.2°C 15.8°F-9.0°C 87% Calm Calm -- 30.15 in1021.0 mb - 0.00 in0.0 mm 0.00 in0.0 mm
12:25 AM 18.5°F-7.5°C 15.8°F-9.0°C 89% Calm Calm -- 30.15 in1021.0 mb - 0.00 in0.0 mm 0.00 in0.0 mm
12:30 AM 18.5°F-7.5°C 15.8°F-9.0°C 89% Calm Calm -- 30.15 in1021.0 mb - 0.00 in0.0 mm 0.00 in0.0 mm
12:35 AM 19.0°F-7.2°C 17.6°F-8.0°C 94% Calm Calm -- 30.09 in1019.0 mb - 0.00 in0.0 mm 0.00 in0.0 mm
12:40 AM 19.0°F-7.2°C 17.6°F-8.0°C 94% Calm Calm -- 30.09 in1019.0 mb - 0.00 in0.0 mm 0.00 in0.0 mm
12:45 AM 19.3°F-7.1°C 17.6°F-8.0°C 93% Calm Calm -- 30.09 in1019.0 mb - 0.00 in0.0 mm 0.00 in0.0 mm
12:50 AM 19.4°F-7.0°C 17.7°F-7.9°C 93% Calm Calm -- 30.09 in1019.0 mb - 0.00 in0.0 mm 0.00 in0.0 mm
12:55 AM 19.0°F-7.2°C 17.6°F-8.0°C 94% Calm Calm -- 30.09 in1019.0 mb - 0.00 in0.0 mm 0.00 in0.0 mm
01:00 AM 19.0°F-7.2°C 17.6°F-8.0°C 94% Calm Calm -- 30.12 in1020.0 mb - 0.00 in0.0 mm 0.00 in0.0 mm
01:10 AM 18.9°F-7.3°C 17.7°F-7.9°C 95% Calm Calm -- 30.12 in1020.0 mb - 0.00 in0.0 mm 0.00 in0.0 mm
01:15 AM 18.9°F-7.3°C 17.7°F-7.9°C 95% Calm Calm -- 30.12 in1020.0 mb - 0.00 in0.0 mm 0.00 in0.0 mm
01:20 AM 18.9°F-7.3°C 17.7°F-7.9°C 95% Calm Calm -- 30.12 in1020.0 mb - 0.00 in0.0 mm 0.00 in0.0 mm
01:25 AM 18.9°F-7.3°C 17.7°F-7.9°C 95% Calm Calm -- 30.12 in1020.0 mb - 0.00 in0.0 mm 0.00 in0.0 mm
01:30 AM 18.5°F-7.5°C 17.6°F-8.0°C 96% Calm Calm -- 30.12 in1020.0 mb - 0.00 in0.0 mm 0.00 in0.0 mm
01:35 AM 18.7°F-7.4°C 17.5°F-8.1°C 95% Calm Calm -- 30.12 in1020.0 mb - 0.00 in0.0 mm 0.00 in0.0 mm
01:40 AM 18.8°F-7.3°C 17.6°F-8.0°C 95% Calm Calm -- 30.12 in1020.0 mb - 0.00 in0.0 mm 0.00 in0.0 mm
01:45 AM 18.9°F-7.3°C 17.7°F-7.9°C 95% Calm Calm -- 30.12 in1020.0 mb - 0.00 in0.0 mm 0.00 in0.0 mm
01:50 AM 18.3°F-7.6°C 15.9°F-8.9°C 90% Calm Calm -- 30.12 in1020.0 mb - 0.00 in0.0 mm 0.00 in0.0 mm
01:55 AM 18.3°F-7.6°C 17.6°F-8.0°C 97% Calm Calm -- 30.12 in1020.0 mb - 0.00 in0.0 mm 0.00 in0.0 mm
02:00 AM 18.3°F-7.6°C 17.6°F-8.0°C 97% Calm Calm -- 30.12 in1020.0 mb - 0.00 in0.0 mm 0.00 in0.0 mm
02:10 AM 18.3°F-7.6°C 15.9°F-8.9°C 90% Calm Calm -- 30.12 in1020.0 mb - 0.00 in0.0 mm 0.00 in0.0 mm
02:15 AM 18.0°F-7.8°C 15.8°F-9.0°C 91% Calm Calm -- 30.12 in1020.0 mb - 0.00 in0.0 mm 0.00 in0.0 mm
02:20 AM 18.0°F-7.8°C 15.8°F-9.0°C 91% Calm Calm -- 30.12 in1020.0 mb - 0.00 in0.0 mm 0.00 in0.0 mm
02:25 AM 17.8°F-7.9°C 17.5°F-8.1°C 99% Calm Calm -- 30.12 in1020.0 mb - 0.00 in0.0 mm 0.00 in0.0 mm
02:30 AM 18.1°F-7.7°C 15.7°F-9.1°C 90% Calm Calm -- 30.12 in1020.0 mb - 0.00 in0.0 mm 0.00 in0.0 mm
02:35 AM 18.0°F-7.8°C 15.8°F-9.0°C 91% Calm Calm 1.2 mph1.9 kmh 30.12 in1020.0 mb - 0.00 in0.0 mm 0.00 in0.0 mm
02:40 AM 17.6°F-8.0°C 15.9°F-8.9°C 93% 1.2 mph NNE1.9 kmh NNE 1.2 mph1.9 kmh 30.12 in1020.0 mb - 0.00 in0.0 mm 0.00 in0.0 mm
02:45 AM 18.0°F-7.8°C 15.8°F-9.0°C 91% Calm Calm -- 30.12 in1020.0 mb - 0.00 in0.0 mm 0.00 in0.0 mm
02:50 AM 17.6°F-8.0°C 15.9°F-8.9°C 93% Calm Calm -- 30.12 in1020.0 mb - 0.00 in0.0 mm 0.00 in0.0 mm
02:55 AM 17.6°F-8.0°C 15.9°F-8.9°C 93% Calm Calm -- 30.12 in1020.0 mb - 0.00 in0.0 mm 0.00 in0.0 mm
03:00 AM 17.2°F-8.2°C 15.8°F-9.0°C 94% Calm Calm -- 30.12 in1020.0 mb - 0.00 in0.0 mm 0.00 in0.0 mm
03:10 AM 17.6°F-8.0°C 15.9°F-8.9°C 93% Calm Calm -- 30.09 in1019.0 mb - 0.00 in0.0 mm 0.00 in0.0 mm
03:15 AM 17.6°F-8.0°C 15.9°F-8.9°C 93% Calm Calm -- 30.09 in1019.0 mb - 0.00 in0.0 mm 0.00 in0.0 mm
03:20 AM 17.2°F-8.2°C 15.8°F-9.0°C 94% Calm Calm -- 30.09 in1019.0 mb - 0.00 in0.0 mm 0.00 in0.0 mm
03:25 AM 17.2°F-8.2°C 15.8°F-9.0°C 94% Calm Calm -- 30.09 in1019.0 mb - 0.00 in0.0 mm 0.00 in0.0 mm
03:30 AM 17.2°F-8.2°C 15.8°F-9.0°C 94% Calm Calm -- 30.09 in1019.0 mb - 0.00 in0.0 mm 0.00 in0.0 mm
03:35 AM 17.4°F-8.1°C 15.7°F-9.1°C 93% Calm Calm -- 30.09 in1019.0 mb - 0.00 in0.0 mm 0.00 in0.0 mm
03:40 AM 17.6°F-8.0°C 15.9°F-8.9°C 93% Calm Calm -- 30.09 in1019.0 mb - 0.00 in0.0 mm 0.00 in0.0 mm
03:45 AM 17.3°F-8.2°C 15.9°F-8.9°C 94% Calm Calm -- 30.09 in1019.0 mb - 0.00 in0.0 mm 0.00 in0.0 mm
03:50 AM 17.2°F-8.2°C 15.8°F-9.0°C 94% Calm Calm -- 30.09 in1019.0 mb - 0.00 in0.0 mm 0.00 in0.0 mm
03:55 AM 17.4°F-8.1°C 15.7°F-9.1°C 93% Calm Calm -- 30.09 in1019.0 mb - 0.00 in0.0 mm 0.00 in0.0 mm
04:00 AM 17.4°F-8.1°C 15.7°F-9.1°C 93% Calm Calm -- 30.09 in1019.0 mb - 0.00 in0.0 mm 0.00 in0.0 mm
04:10 AM 17.1°F-8.3°C 15.9°F-8.9°C 95% Calm Calm -- 30.09 in1019.0 mb - 0.00 in0.0 mm 0.00 in0.0 mm
04:15 AM 17.4°F-8.1°C 15.7°F-9.1°C 93% Calm Calm -- 30.09 in1019.0 mb - 0.00 in0.0 mm 0.00 in0.0 mm
04:20 AM 17.4°F-8.1°C 15.7°F-9.1°C 93% Calm Calm -- 30.09 in1019.0 mb - 0.00 in0.0 mm 0.00 in0.0 mm
04:25 AM 17.4°F-8.1°C 15.7°F-9.1°C 93% Calm Calm -- 30.09 in1019.0 mb - 0.00 in0.0 mm 0.00 in0.0 mm
04:30 AM 17.2°F-8.2°C 15.8°F-9.0°C 94% 1.2 mph NNE1.9 kmh NNE 1.2 mph1.9 kmh 30.09 in1019.0 mb - 0.00 in0.0 mm 0.00 in0.0 mm
04:35 AM 17.1°F-8.3°C 15.9°F-8.9°C 95% Calm Calm -- 30.09 in1019.0 mb - 0.00 in0.0 mm 0.00 in0.0 mm
04:40 AM 16.9°F-8.4°C 15.0°F-9.4°C 92% Calm Calm -- 30.09 in1019.0 mb - 0.00 in0.0 mm 0.00 in0.0 mm
04:45 AM 16.7°F-8.5°C 14.0°F-10.0°C 89% Calm Calm -- 30.09 in1019.0 mb - 0.00 in0.0 mm 0.00 in0.0 mm
04:50 AM 16.7°F-8.5°C 14.0°F-10.0°C 89% Calm Calm -- 30.09 in1019.0 mb - 0.00 in0.0 mm 0.00 in0.0 mm
04:55 AM 16.5°F-8.6°C 14.1°F-9.9°C 90% Calm Calm -- 30.09 in1019.0 mb - 0.00 in0.0 mm 0.00 in0.0 mm
05:00 AM 16.5°F-8.6°C 14.1°F-9.9°C 90% Calm Calm -- 30.09 in1019.0 mb - 0.00 in0.0 mm 0.00 in0.0 mm
05:10 AM 16.0°F-8.9°C 14.1°F-9.9°C 92% Calm Calm -- 30.06 in1017.9 mb - 0.00 in0.0 mm 0.00 in0.0 mm
05:15 AM 15.4°F-9.2°C 14.0°F-10.0°C 94% Calm Calm -- 30.06 in1017.9 mb - 0.00 in0.0 mm 0.00 in0.0 mm
05:20 AM 15.3°F-9.3°C 14.1°F-9.9°C 95% Calm Calm -- 30.06 in1017.9 mb - 0.00 in0.0 mm 0.00 in0.0 mm
05:25 AM 16.0°F-8.9°C 14.1°F-9.9°C 92% Calm Calm -- 30.06 in1017.9 mb - 0.00 in0.0 mm 0.00 in0.0 mm
05:30 AM 15.4°F-9.2°C 14.0°F-10.0°C 94% Calm Calm -- 30.06 in1017.9 mb - 0.00 in0.0 mm 0.00 in0.0 mm
05:35 AM 15.4°F-9.2°C 14.0°F-10.0°C 94% Calm Calm -- 30.06 in1017.9 mb - 0.00 in0.0 mm 0.00 in0.0 mm
05:40 AM 15.1°F-9.4°C 13.9°F-10.1°C 95% Calm Calm -- 30.06 in1017.9 mb - 0.00 in0.0 mm 0.00 in0.0 mm
05:45 AM 14.7°F-9.6°C 14.0°F-10.0°C 97% Calm Calm -- 30.06 in1017.9 mb - 0.00 in0.0 mm 0.00 in0.0 mm
05:50 AM 16.0°F-8.9°C 15.7°F-9.1°C 99% Calm Calm -- 30.06 in1017.9 mb - 0.00 in0.0 mm 0.00 in0.0 mm
05:55 AM 16.0°F-8.9°C 15.7°F-9.1°C 99% Calm Calm -- 30.06 in1017.9 mb - 0.00 in0.0 mm 0.00 in0.0 mm
06:00 AM 16.0°F-8.9°C 14.1°F-9.9°C 92% Calm Calm -- 30.06 in1017.9 mb - 0.00 in0.0 mm 0.00 in0.0 mm
06:10 AM 15.6°F-9.1°C 14.0°F-10.0°C 93% Calm Calm -- 30.06 in1017.9 mb - 0.00 in0.0 mm 0.00 in0.0 mm
06:15 AM 15.6°F-9.1°C 14.0°F-10.0°C 93% Calm Calm -- 30.06 in1017.9 mb - 0.00 in0.0 mm 0.00 in0.0 mm
06:20 AM 15.1°F-9.4°C 13.9°F-10.1°C 95% Calm Calm -- 30.06 in1017.9 mb - 0.00 in0.0 mm 0.00 in0.0 mm
06:25 AM 15.1°F-9.4°C 13.9°F-10.1°C 95% Calm Calm -- 30.06 in1017.9 mb - 0.00 in0.0 mm 0.00 in0.0 mm
06:30 AM 15.1°F-9.4°C 13.9°F-10.1°C 95% Calm Calm -- 30.06 in1017.9 mb - 0.00 in0.0 mm 0.00 in0.0 mm
06:35 AM 15.3°F-9.3°C 14.1°F-9.9°C 95% 1.2 mph NNE1.9 kmh NNE 1.2 mph1.9 kmh 30.06 in1017.9 mb - 0.00 in0.0 mm 0.00 in0.0 mm
06:40 AM 14.9°F-9.5°C 14.0°F-10.0°C 96% Calm Calm -- 30.06 in1017.9 mb - 0.00 in0.0 mm 0.00 in0.0 mm
06:45 AM 14.8°F-9.6°C 14.1°F-9.9°C 97% Calm Calm -- 30.06 in1017.9 mb - 0.00 in0.0 mm 0.00 in0.0 mm
06:50 AM 14.7°F-9.6°C 14.0°F-10.0°C 97% Calm Calm -- 30.06 in1017.9 mb - 0.00 in0.0 mm 0.00 in0.0 mm
06:55 AM 14.7°F-9.6°C 14.0°F-10.0°C 97% Calm Calm -- 30.06 in1017.9 mb - 0.00 in0.0 mm 0.00 in0.0 mm
07:00 AM 14.5°F-9.7°C 14.1°F-9.9°C 98% Calm Calm -- 30.03 in1016.9 mb - 0.00 in0.0 mm 0.00 in0.0 mm
07:10 AM 14.9°F-9.5°C 14.0°F-10.0°C 96% Calm Calm -- 30.03 in1016.9 mb - 0.00 in0.0 mm 0.00 in0.0 mm
07:15 AM 14.9°F-9.5°C 14.0°F-10.0°C 96% Calm Calm -- 30.03 in1016.9 mb - 0.00 in0.0 mm 0.00 in0.0 mm
07:20 AM 15.1°F-9.4°C 13.9°F-10.1°C 95% Calm Calm -- 30.03 in1016.9 mb - 0.00 in0.0 mm 0.00 in0.0 mm
07:25 AM 15.1°F-9.4°C 13.9°F-10.1°C 95% Calm Calm -- 30.03 in1016.9 mb - 0.00 in0.0 mm 0.00 in0.0 mm
07:30 AM 14.7°F-9.6°C 14.0°F-10.0°C 97% Calm Calm -- 30.03 in1016.9 mb - 0.00 in0.0 mm 0.00 in0.0 mm
07:35 AM 14.2°F-9.9°C 14.0°F-10.0°C 99% Calm Calm -- 30.03 in1016.9 mb - 0.00 in0.0 mm 0.00 in0.0 mm
07:40 AM 14.2°F-9.9°C 14.0°F-10.0°C 99% Calm Calm -- 30.03 in1016.9 mb - 0.00 in0.0 mm 0.00 in0.0 mm
07:45 AM 14.7°F-9.6°C 14.0°F-10.0°C 97% Calm Calm -- 30.03 in1016.9 mb - 0.00 in0.0 mm 0.00 in0.0 mm
07:50 AM 14.4°F-9.8°C 13.9°F-10.1°C 98% Calm Calm -- 30.03 in1016.9 mb - 0.00 in0.0 mm 0.00 in0.0 mm
07:55 AM 14.3°F-9.8°C 13.8°F-10.1°C 98% Calm Calm -- 30.03 in1016.9 mb - 0.00 in0.0 mm 0.00 in0.0 mm
08:00 AM 14.2°F-9.9°C 14.0°F-10.0°C 99% Calm Calm -- 30.03 in1016.9 mb - 0.00 in0.0 mm 0.00 in0.0 mm
08:10 AM 14.0°F-10.0°C 13.5°F-10.3°C 98% Calm Calm -- 30.03 in1016.9 mb - 0.00 in0.0 mm 0.00 in0.0 mm
08:15 AM 14.4°F-9.8°C 13.9°F-10.1°C 98% Calm Calm -- 30.03 in1016.9 mb - 0.00 in0.0 mm 0.00 in0.0 mm
08:20 AM 14.7°F-9.6°C 14.0°F-10.0°C 97% Calm Calm -- 30.03 in1016.9 mb - 0.00 in0.0 mm 0.00 in0.0 mm
08:25 AM 15.1°F-9.4°C 13.9°F-10.1°C 95% Calm Calm -- 30.03 in1016.9 mb - 0.00 in0.0 mm 0.00 in0.0 mm
08:30 AM 15.1°F-9.4°C 13.9°F-10.1°C 95% Calm Calm -- 30.03 in1016.9 mb - 0.00 in0.0 mm 0.00 in0.0 mm
08:35 AM 16.0°F-8.9°C 15.7°F-9.1°C 99% Calm Calm -- 30.03 in1016.9 mb - 0.00 in0.0 mm 0.00 in0.0 mm
08:40 AM 17.1°F-8.3°C 15.9°F-8.9°C 95% Calm Calm -- 30.03 in1016.9 mb - 0.00 in0.0 mm 0.00 in0.0 mm
08:45 AM 17.1°F-8.3°C 15.9°F-8.9°C 95% Calm Calm -- 30.03 in1016.9 mb - 0.00 in0.0 mm 0.00 in0.0 mm
08:50 AM 18.9°F-7.3°C 17.7°F-7.9°C 95% Calm Calm -- 30.03 in1016.9 mb - 0.00 in0.0 mm 0.00 in0.0 mm
08:55 AM 21.6°F-5.8°C 19.3°F-7.1°C 91% Calm Calm -- 30.03 in1016.9 mb - 0.00 in0.0 mm 0.00 in0.0 mm
09:00 AM 21.9°F-5.6°C 19.9°F-6.7°C 92% Calm Calm -- 30.03 in1016.9 mb - 0.00 in0.0 mm 0.00 in0.0 mm
09:10 AM 22.3°F-5.4°C 21.3°F-5.9°C 96% Calm Calm -- 30.03 in1016.9 mb - 0.00 in0.0 mm 0.00 in0.0 mm
09:15 AM 22.7°F-5.2°C 21.7°F-5.7°C 96% 1.2 mph NNE1.9 kmh NNE 1.2 mph1.9 kmh 30.03 in1016.9 mb - 0.00 in0.0 mm 0.00 in0.0 mm
09:20 AM 22.8°F-5.1°C 21.9°F-5.6°C 96% 1.2 mph NNE1.9 kmh NNE 1.2 mph1.9 kmh 30.03 in1016.9 mb - 0.00 in0.0 mm 0.00 in0.0 mm
09:25 AM 23.7°F-4.6°C 23.0°F-5.0°C 97% 1.2 mph NNE1.9 kmh NNE 1.2 mph1.9 kmh 30.03 in1016.9 mb - 0.00 in0.0 mm 0.00 in0.0 mm
09:30 AM 24.6°F-4.1°C 23.9°F-4.5°C 97% 1.2 mph NNE1.9 kmh NNE 1.2 mph1.9 kmh 30.03 in1016.9 mb - 0.00 in0.0 mm 0.00 in0.0 mm
09:35 AM 24.6°F-4.1°C -5.5°F-20.8°C 26% 1.2 mph NNE1.9 kmh NNE 1.2 mph1.9 kmh 30.03 in1016.9 mb - 0.00 in0.0 mm 0.00 in0.0 mm
09:40 AM 26.2°F-3.2°C -18.0°F-27.8°C 13% Calm Calm -- 30.03 in1016.9 mb - 0.00 in0.0 mm 0.00 in0.0 mm
09:45 AM 27.0°F-2.8°C -5.1°F-20.6°C 24% 1.2 mph NNE1.9 kmh NNE 1.2 mph1.9 kmh 30.03 in1016.9 mb - 0.00 in0.0 mm 0.00 in0.0 mm
09:50 AM 27.0°F-2.8°C 26.7°F-2.9°C 99% 1.2 mph NNE1.9 kmh NNE 1.2 mph1.9 kmh 30.03 in1016.9 mb - 0.00 in0.0 mm 0.00 in0.0 mm
09:55 AM 28.2°F-2.1°C 21.3°F-5.9°C 75% Calm Calm -- 30.03 in1016.9 mb - 0.00 in0.0 mm 0.00 in0.0 mm
10:00 AM 28.0°F-2.2°C 23.5°F-4.7°C 83% 1.2 mph NNE1.9 kmh NNE 1.2 mph1.9 kmh 30.03 in1016.9 mb - 0.00 in0.0 mm 0.00 in0.0 mm
10:10 AM 29.5°F-1.4°C 28.5°F-1.9°C 96% 1.2 mph NNE1.9 kmh NNE 1.2 mph1.9 kmh 30.03 in1016.9 mb - 0.00 in0.0 mm 0.00 in0.0 mm
10:15 AM 30.2°F-1.0°C 30.2°F-1.0°C 100% 2.3 mph NNE3.7 kmh NNE 2.3 mph3.7 kmh 30.03 in1016.9 mb - 0.00 in0.0 mm 0.00 in0.0 mm
10:20 AM 30.2°F-1.0°C 30.2°F-1.0°C 100% 2.3 mph NNE3.7 kmh NNE 2.3 mph3.7 kmh 30.03 in1016.9 mb - 0.00 in0.0 mm 0.00 in0.0 mm
10:25 AM 30.4°F-0.9°C -11.9°F-24.4°C 15% 1.2 mph NNE1.9 kmh NNE 1.2 mph1.9 kmh 30.03 in1016.9 mb - 0.00 in0.0 mm 0.00 in0.0 mm
10:30 AM 30.9°F-0.6°C -17.6°F-27.6°C 11% 3.5 mph NNE5.6 kmh NNE 3.5 mph5.6 kmh 30.03 in1016.9 mb - 0.00 in0.0 mm 0.00 in0.0 mm
10:35 AM 30.9°F-0.6°C -17.6°F-27.6°C 11% 2.3 mph N3.7 kmh N 3.5 mph5.6 kmh 30.03 in1016.9 mb - 0.00 in0.0 mm 0.00 in0.0 mm
10:40 AM 30.9°F-0.6°C 30.2°F-1.0°C 97% 2.3 mph N3.7 kmh N 2.3 mph3.7 kmh 30.03 in1016.9 mb - 0.00 in0.0 mm 0.00 in0.0 mm
10:45 AM 31.1°F-0.5°C 30.1°F-1.1°C 96% 3.5 mph N5.6 kmh N 3.5 mph5.6 kmh 30.03 in1016.9 mb - 0.00 in0.0 mm 0.00 in0.0 mm
10:50 AM 32.2°F0.1°C 31.9°F-0.1°C 99% 3.5 mph N5.6 kmh N 3.5 mph5.6 kmh 30.03 in1016.9 mb - 0.00 in0.0 mm 0.00 in0.0 mm
10:55 AM 32.4°F0.2°C 32.1°F0.1°C 99% 3.5 mph N5.6 kmh N 3.5 mph5.6 kmh 30.03 in1016.9 mb - 0.00 in0.0 mm 0.00 in0.0 mm
11:00 AM 31.3°F-0.4°C 30.3°F-0.9°C 96% 3.5 mph N5.6 kmh N 3.5 mph5.6 kmh 30.00 in1015.9 mb - 0.00 in0.0 mm 0.00 in0.0 mm
11:10 AM 31.5°F-0.3°C 30.5°F-0.8°C 96% 3.5 mph N5.6 kmh N 3.5 mph5.6 kmh 30.00 in1015.9 mb - 0.00 in0.0 mm 0.00 in0.0 mm
11:15 AM 30.2°F-1.0°C -18.1°F-27.8°C 11% 3.5 mph NNE5.6 kmh NNE 3.5 mph5.6 kmh 30.00 in1015.9 mb - 0.00 in0.0 mm 0.00 in0.0 mm
11:20 AM 31.5°F-0.3°C -11.0°F-23.9°C 15% 2.3 mph N3.7 kmh N 2.3 mph3.7 kmh 30.00 in1015.9 mb - 0.00 in0.0 mm 0.00 in0.0 mm
11:25 AM 31.5°F-0.3°C -10.9°F-23.8°C 15% 2.3 mph N3.7 kmh N 2.3 mph3.7 kmh 30.00 in1015.9 mb - 0.00 in0.0 mm 0.00 in0.0 mm
11:30 AM 33.8°F1.0°C 17.6°F-8.0°C 51% 1.2 mph N1.9 kmh N 1.2 mph1.9 kmh 30.00 in1015.9 mb - 0.00 in0.0 mm 0.00 in0.0 mm
11:35 AM 31.8°F-0.1°C 2.4°F-16.4°C 28% 1.2 mph N1.9 kmh N 1.2 mph1.9 kmh 30.00 in1015.9 mb - 0.00 in0.0 mm 0.00 in0.0 mm
11:40 AM 32.5°F0.3°C -2.2°F-19.0°C 22% 1.2 mph N1.9 kmh N 1.2 mph1.9 kmh 30.00 in1015.9 mb - 0.00 in0.0 mm 0.00 in0.0 mm
11:45 AM 34.0°F1.1°C 1.8°F-16.8°C 25% 1.2 mph N1.9 kmh N 1.2 mph1.9 kmh 30.00 in1015.9 mb - 0.00 in0.0 mm 0.00 in0.0 mm
11:50 AM 31.8°F-0.1°C 10.2°F-12.1°C 40% 2.3 mph N3.7 kmh N 2.3 mph3.7 kmh 30.00 in1015.9 mb - 0.00 in0.0 mm 0.00 in0.0 mm
11:55 AM 33.1°F0.6°C 11.4°F-11.4°C 40% Calm Calm 2.3 mph3.7 kmh 29.95 in1014.2 mb - 0.00 in0.0 mm 0.00 in0.0 mm
12:00 PM 33.4°F0.8°C 19.4°F-7.0°C 56% Calm Calm -- 29.94 in1013.9 mb - 0.00 in0.0 mm 0.00 in0.0 mm
12:10 PM 34.7°F1.5°C -7.0°F-21.7°C 16% Calm Calm -- 29.97 in1014.9 mb - 0.00 in0.0 mm 0.00 in0.0 mm
12:15 PM 34.7°F1.5°C 24.9°F-3.9°C 67% Calm Calm -- 29.97 in1014.9 mb - 0.00 in0.0 mm 0.00 in0.0 mm
12:20 PM 34.7°F1.5°C 23.0°F-5.0°C 62% 1.2 mph N1.9 kmh N 1.2 mph1.9 kmh 29.97 in1014.9 mb - 0.00 in0.0 mm 0.00 in0.0 mm
12:25 PM 35.4°F1.9°C 22.9°F-5.1°C 60% 1.2 mph N1.9 kmh N 1.2 mph1.9 kmh 29.94 in1013.9 mb - 0.00 in0.0 mm 0.00 in0.0 mm
12:30 PM 35.4°F1.9°C 22.9°F-5.1°C 60% 1.2 mph N1.9 kmh N 1.2 mph1.9 kmh 29.94 in1013.9 mb - 0.00 in0.0 mm 0.00 in0.0 mm
12:35 PM 33.1°F0.6°C 17.8°F-7.9°C 53% 1.2 mph N1.9 kmh N 1.2 mph1.9 kmh 29.94 in1013.9 mb - 0.00 in0.0 mm 0.00 in0.0 mm
12:40 PM 33.1°F0.6°C 9.6°F-12.4°C 37% 3.5 mph N5.6 kmh N 3.5 mph5.6 kmh 29.94 in1013.9 mb - 0.00 in0.0 mm 0.00 in0.0 mm
12:45 PM 33.0°F0.6°C 7.0°F-13.9°C 33% 3.5 mph NE5.6 kmh NE 3.5 mph5.6 kmh 29.94 in1013.9 mb - 0.00 in0.0 mm 0.00 in0.0 mm
12:50 PM 32.9°F0.5°C -17.9°F-27.7°C 10% 3.5 mph ENE5.6 kmh ENE 3.5 mph5.6 kmh 29.94 in1013.9 mb - 0.00 in0.0 mm 0.00 in0.0 mm
12:55 PM 32.7°F0.4°C 32.0°F0.0°C 97% 2.3 mph NE3.7 kmh NE 2.3 mph3.7 kmh 29.94 in1013.9 mb - 0.00 in0.0 mm 0.00 in0.0 mm
01:00 PM 32.3°F0.2°C 31.5°F-0.3°C 97% 3.5 mph NE5.6 kmh NE 3.5 mph5.6 kmh 29.99 in1015.6 mb - 0.00 in0.0 mm 0.00 in0.0 mm
01:10 PM 32.5°F0.3°C -18.2°F-27.9°C 10% 2.3 mph N3.7 kmh N 2.3 mph3.7 kmh 30.00 in1015.9 mb - 0.00 in0.0 mm 0.00 in0.0 mm
01:15 PM 33.3°F0.7°C -17.6°F-27.6°C 10% 3.5 mph NNE5.6 kmh NNE 3.5 mph5.6 kmh 30.00 in1015.9 mb - 0.00 in0.0 mm 0.00 in0.0 mm
01:20 PM 33.3°F0.7°C 10.4°F-12.0°C 38% 3.5 mph NNE5.6 kmh NNE 3.5 mph5.6 kmh 30.00 in1015.9 mb - 0.00 in0.0 mm 0.00 in0.0 mm
01:25 PM 32.9°F0.5°C 15.8°F-9.0°C 49% 2.3 mph NNE3.7 kmh NNE 2.3 mph3.7 kmh 30.00 in1015.9 mb - 0.00 in0.0 mm 0.00 in0.0 mm
01:30 PM 33.3°F0.7°C 17.5°F-8.1°C 52% 2.3 mph N3.7 kmh N 2.3 mph3.7 kmh 30.00 in1015.9 mb - 0.00 in0.0 mm 0.00 in0.0 mm
01:35 PM 33.3°F0.7°C 17.5°F-8.1°C 52% 2.3 mph N3.7 kmh N 2.3 mph3.7 kmh 30.00 in1015.9 mb - 0.00 in0.0 mm 0.00 in0.0 mm
01:40 PM 33.4°F0.8°C 17.7°F-7.9°C 52% 2.3 mph N3.7 kmh N 2.3 mph3.7 kmh 30.00 in1015.9 mb - 0.00 in0.0 mm 0.00 in0.0 mm
01:45 PM 34.3°F1.3°C 23.8°F-4.6°C 65% 3.5 mph NNW5.6 kmh NNW 3.5 mph5.6 kmh 30.00 in1015.9 mb - 0.00 in0.0 mm 0.00 in0.0 mm
01:50 PM 34.5°F1.4°C 28.7°F-1.8°C 79% 3.5 mph NNW5.6 kmh NNW 3.5 mph5.6 kmh 30.00 in1015.9 mb - 0.00 in0.0 mm 0.00 in0.0 mm
01:55 PM 37.4°F3.0°C 35.6°F2.0°C 93% 2.3 mph NNW3.7 kmh NNW 2.3 mph3.7 kmh 30.00 in1015.9 mb - 0.00 in0.0 mm 0.00 in0.0 mm
02:00 PM 37.9°F3.3°C 33.8°F1.0°C 85% 4.6 mph N7.4 kmh N 4.6 mph7.4 kmh 29.97 in1014.9 mb - 0.00 in0.0 mm 0.00 in0.0 mm
02:10 PM 37.2°F2.9°C 33.7°F0.9°C 87% 3.5 mph NNW5.6 kmh NNW 3.5 mph5.6 kmh 29.97 in1014.9 mb - 0.00 in0.0 mm 0.00 in0.0 mm
02:15 PM 36.5°F2.5°C 32.1°F0.1°C 84% 2.3 mph N3.7 kmh N 2.3 mph3.7 kmh 29.97 in1014.9 mb - 0.00 in0.0 mm 0.00 in0.0 mm
02:20 PM 34.7°F1.5°C 32.0°F0.0°C 90% 2.3 mph N3.7 kmh N 3.5 mph5.6 kmh 29.97 in1014.9 mb - 0.00 in0.0 mm 0.00 in0.0 mm
02:25 PM 33.8°F1.0°C 32.0°F0.0°C 93% 3.5 mph NNW5.6 kmh NNW 3.5 mph5.6 kmh 29.97 in1014.9 mb - 0.00 in0.0 mm 0.00 in0.0 mm
02:30 PM 34.7°F1.5°C 32.1°F0.1°C 90% 4.6 mph W7.4 kmh W 4.6 mph7.4 kmh 29.97 in1014.9 mb - 0.00 in0.0 mm 0.00 in0.0 mm
02:35 PM 34.5°F1.4°C 30.2°F-1.0°C 84% 3.5 mph NW5.6 kmh NW 3.5 mph5.6 kmh 29.97 in1014.9 mb - 0.00 in0.0 mm 0.00 in0.0 mm
02:40 PM 34.5°F1.4°C 30.2°F-1.0°C 84% 3.5 mph NW5.6 kmh NW 3.5 mph5.6 kmh 29.97 in1014.9 mb - 0.00 in0.0 mm 0.00 in0.0 mm
02:45 PM 36.0°F2.2°C 31.9°F-0.1°C 85% 3.5 mph N5.6 kmh N 3.5 mph5.6 kmh 29.91 in1012.9 mb - 0.00 in0.0 mm 0.00 in0.0 mm
02:50 PM 34.2°F1.2°C 32.1°F0.1°C 92% 2.3 mph NE3.7 kmh NE 2.3 mph3.7 kmh 29.91 in1012.9 mb - 0.00 in0.0 mm 0.00 in0.0 mm
02:55 PM 34.2°F1.2°C 32.1°F0.1°C 92% 2.3 mph NE3.7 kmh NE 2.3 mph3.7 kmh 29.91 in1012.9 mb - 0.00 in0.0 mm 0.00 in0.0 mm
03:00 PM 33.8°F1.0°C 32.0°F0.0°C 93% 3.5 mph NE5.6 kmh NE 3.5 mph5.6 kmh 29.91 in1012.9 mb - 0.00 in0.0 mm 0.00 in0.0 mm
03:10 PM 33.3°F0.7°C 32.0°F0.0°C 95% 4.6 mph N7.4 kmh N 5.8 mph9.3 kmh 29.95 in1014.2 mb - 0.00 in0.0 mm 0.00 in0.0 mm
03:15 PM 33.4°F0.8°C 31.9°F-0.1°C 94% 1.2 mph NW1.9 kmh NW 1.2 mph1.9 kmh 29.91 in1012.9 mb - 0.00 in0.0 mm 0.00 in0.0 mm
03:20 PM 33.8°F1.0°C 30.1°F-1.1°C 86% 2.3 mph NE3.7 kmh NE 2.3 mph3.7 kmh 29.91 in1012.9 mb - 0.00 in0.0 mm 0.00 in0.0 mm
03:25 PM 33.4°F0.8°C 31.6°F-0.2°C 93% 3.5 mph WNW5.6 kmh WNW 3.5 mph5.6 kmh 29.91 in1012.9 mb - 0.00 in0.0 mm 0.00 in0.0 mm
03:30 PM 33.3°F0.7°C 32.0°F0.0°C 95% 3.5 mph W5.6 kmh W 3.5 mph5.6 kmh 29.91 in1012.9 mb - 0.00 in0.0 mm 0.00 in0.0 mm
03:35 PM 33.1°F0.6°C 32.1°F0.1°C 96% 3.5 mph NE5.6 kmh NE 3.5 mph5.6 kmh 29.91 in1012.9 mb - 0.00 in0.0 mm 0.00 in0.0 mm
03:40 PM 32.5°F0.3°C 32.0°F0.0°C 98% 2.3 mph N3.7 kmh N 2.3 mph3.7 kmh 29.91 in1012.9 mb - 0.00 in0.0 mm 0.00 in0.0 mm
03:45 PM 32.5°F0.3°C 32.0°F0.0°C 98% 2.3 mph N3.7 kmh N 2.3 mph3.7 kmh 29.91 in1012.9 mb - 0.00 in0.0 mm 0.00 in0.0 mm
03:50 PM 32.2°F0.1°C 31.9°F-0.1°C 99% 3.5 mph WNW5.6 kmh WNW 3.5 mph5.6 kmh 29.91 in1012.9 mb - 0.00 in0.0 mm 0.00 in0.0 mm
03:55 PM 32.5°F0.3°C 30.2°F-1.0°C 91% 2.3 mph NW3.7 kmh NW 2.3 mph3.7 kmh 29.91 in1012.9 mb - 0.00 in0.0 mm 0.00 in0.0 mm
04:00 PM 32.5°F0.3°C 30.2°F-1.0°C 91% 2.3 mph NW3.7 kmh NW 2.3 mph3.7 kmh 29.91 in1012.9 mb - 0.00 in0.0 mm 0.00 in0.0 mm
04:10 PM 33.6°F0.9°C 30.2°F-1.0°C 87% 3.5 mph NE5.6 kmh NE 3.5 mph5.6 kmh 29.94 in1013.9 mb - 0.00 in0.0 mm 0.00 in0.0 mm
04:15 PM 33.6°F0.9°C 30.2°F-1.0°C 87% 3.5 mph NE5.6 kmh NE 3.5 mph5.6 kmh 29.94 in1013.9 mb - 0.00 in0.0 mm 0.00 in0.0 mm
04:20 PM 33.6°F0.9°C 30.2°F-1.0°C 87% 2.3 mph NE3.7 kmh NE 2.3 mph3.7 kmh 29.94 in1013.9 mb - 0.00 in0.0 mm 0.00 in0.0 mm
04:25 PM 32.7°F0.4°C 28.4°F-2.0°C 84% 2.3 mph NE3.7 kmh NE 2.3 mph3.7 kmh 29.94 in1013.9 mb - 0.00 in0.0 mm 0.00 in0.0 mm
04:30 PM 32.5°F0.3°C 28.2°F-2.1°C 84% 3.5 mph NW5.6 kmh NW 3.5 mph5.6 kmh 29.94 in1013.9 mb - 0.00 in0.0 mm 0.00 in0.0 mm
04:35 PM 32.4°F0.2°C 32.1°F0.1°C 99% 3.5 mph WNW5.6 kmh WNW 3.5 mph5.6 kmh 29.94 in1013.9 mb - 0.00 in0.0 mm 0.00 in0.0 mm
04:40 PM 31.5°F-0.3°C 31.2°F-0.4°C 99% 2.3 mph NE3.7 kmh NE 2.3 mph3.7 kmh 29.94 in1013.9 mb - 0.00 in0.0 mm 0.00 in0.0 mm
04:45 PM 31.5°F-0.3°C 31.2°F-0.4°C 99% 3.5 mph N5.6 kmh N 3.5 mph5.6 kmh 29.94 in1013.9 mb - 0.00 in0.0 mm 0.00 in0.0 mm
04:50 PM 31.5°F-0.3°C 31.2°F-0.4°C 99% 3.5 mph N5.6 kmh N 3.5 mph5.6 kmh 29.94 in1013.9 mb - 0.00 in0.0 mm 0.00 in0.0 mm
04:55 PM 31.5°F-0.3°C 31.2°F-0.4°C 99% 2.3 mph NNE3.7 kmh NNE 2.3 mph3.7 kmh 29.94 in1013.9 mb - 0.00 in0.0 mm 0.00 in0.0 mm
05:00 PM 31.3°F-0.4°C 30.3°F-0.9°C 96% 3.5 mph NE5.6 kmh NE 3.5 mph5.6 kmh 29.97 in1014.9 mb - 0.00 in0.0 mm 0.00 in0.0 mm
05:10 PM 30.9°F-0.6°C 30.2°F-1.0°C 97% 3.5 mph N5.6 kmh N 3.5 mph5.6 kmh 29.97 in1014.9 mb - 0.00 in0.0 mm 0.00 in0.0 mm
05:15 PM 30.6°F-0.8°C 30.3°F-0.9°C 99% 1.2 mph NNE1.9 kmh NNE 1.2 mph1.9 kmh 29.91 in1012.9 mb - 0.00 in0.0 mm 0.00 in0.0 mm
05:20 PM 30.5°F-0.8°C 30.3°F-0.9°C 99% 1.2 mph NNE1.9 kmh NNE 1.2 mph1.9 kmh 29.91 in1012.9 mb - 0.00 in0.0 mm 0.00 in0.0 mm
05:25 PM 30.4°F-0.9°C 23.1°F-4.9°C 74% 1.2 mph NNE1.9 kmh NNE 1.2 mph1.9 kmh 29.91 in1012.9 mb - 0.00 in0.0 mm 0.00 in0.0 mm
05:30 PM 29.5°F-1.4°C 28.5°F-1.9°C 96% 2.3 mph N3.7 kmh N 2.3 mph3.7 kmh 29.91 in1012.9 mb - 0.00 in0.0 mm 0.00 in0.0 mm
05:35 PM 29.1°F-1.6°C 28.1°F-2.2°C 96% 3.5 mph NNE5.6 kmh NNE 3.5 mph5.6 kmh 29.91 in1012.9 mb - 0.00 in0.0 mm 0.00 in0.0 mm
05:40 PM 28.9°F-1.7°C 13.9°F-10.1°C 53% 3.5 mph NNE5.6 kmh NNE 3.5 mph5.6 kmh 29.91 in1012.9 mb - 0.00 in0.0 mm 0.00 in0.0 mm
05:45 PM 28.9°F-1.7°C 7.0°F-13.9°C 39% 5.8 mph NNW9.3 kmh NNW 5.8 mph9.3 kmh 29.91 in1012.9 mb - 0.00 in0.0 mm 0.00 in0.0 mm
05:50 PM 28.8°F-1.8°C 6.9°F-13.9°C 39% 1.2 mph N1.9 kmh N 1.2 mph1.9 kmh 29.94 in1013.9 mb - 0.00 in0.0 mm 0.00 in0.0 mm
05:55 PM 28.8°F-1.8°C -0.3°F-17.9°C 28% 1.2 mph N1.9 kmh N 1.2 mph1.9 kmh 29.94 in1013.9 mb - 0.00 in0.0 mm 0.00 in0.0 mm
06:00 PM 28.8°F-1.8°C -7.3°F-21.8°C 20% 3.5 mph NW5.6 kmh NW 3.5 mph5.6 kmh 29.94 in1013.9 mb - 0.00 in0.0 mm 0.00 in0.0 mm
06:10 PM 29.1°F-1.6°C -6.0°F-21.1°C 21% 1.2 mph NNW1.9 kmh NNW 1.2 mph1.9 kmh 29.94 in1013.9 mb - 0.00 in0.0 mm 0.00 in0.0 mm
06:15 PM 28.9°F-1.7°C -21.0°F-29.4°C 10% 2.3 mph NW3.7 kmh NW 2.3 mph3.7 kmh 29.97 in1014.9 mb - 0.00 in0.0 mm 0.00 in0.0 mm
06:20 PM 28.8°F-1.8°C -10.7°F-23.7°C 17% 3.5 mph NNW5.6 kmh NNW 3.5 mph5.6 kmh 29.94 in1013.9 mb - 0.00 in0.0 mm 0.00 in0.0 mm
06:25 PM 28.8°F-1.8°C -13.2°F-25.1°C 15% 3.5 mph NNW5.6 kmh NNW 3.5 mph5.6 kmh 29.94 in1013.9 mb - 0.00 in0.0 mm 0.00 in0.0 mm
06:30 PM 28.8°F-1.8°C -21.1°F-29.5°C 10% 2.3 mph N3.7 kmh N 2.3 mph3.7 kmh 29.94 in1013.9 mb - 0.00 in0.0 mm 0.00 in0.0 mm
06:35 PM 28.9°F-1.7°C 28.4°F-2.0°C 98% 1.2 mph N1.9 kmh N 1.2 mph1.9 kmh 29.94 in1013.9 mb - 0.00 in0.0 mm 0.00 in0.0 mm
06:40 PM 28.8°F-1.8°C 28.3°F-2.1°C 98% 2.3 mph N3.7 kmh N 3.5 mph5.6 kmh 29.94 in1013.9 mb - 0.00 in0.0 mm 0.00 in0.0 mm
06:45 PM 28.8°F-1.8°C -13.2°F-25.1°C 15% 3.5 mph N5.6 kmh N 3.5 mph5.6 kmh 29.94 in1013.9 mb - 0.00 in0.0 mm 0.00 in0.0 mm
06:50 PM 28.4°F-2.0°C -21.4°F-29.7°C 10% 2.3 mph NW3.7 kmh NW 2.3 mph3.7 kmh 29.94 in1013.9 mb - 0.00 in0.0 mm 0.00 in0.0 mm
06:55 PM 28.4°F-2.0°C -9.8°F-23.2°C 18% 1.2 mph NW1.9 kmh NW 1.2 mph1.9 kmh 29.94 in1013.9 mb - 0.00 in0.0 mm 0.00 in0.0 mm
07:00 PM 28.4°F-2.0°C -9.8°F-23.2°C 18% 1.2 mph NW1.9 kmh NW 1.2 mph1.9 kmh 29.94 in1013.9 mb - 0.00 in0.0 mm 0.00 in0.0 mm
07:10 PM 28.0°F-2.2°C -21.7°F-29.8°C 10% 3.5 mph NW5.6 kmh NW 3.5 mph5.6 kmh 29.94 in1013.9 mb - 0.00 in0.0 mm 0.00 in0.0 mm
07:15 PM 28.0°F-2.2°C -21.7°F-29.8°C 10% 3.5 mph NW5.6 kmh NW 3.5 mph5.6 kmh 29.94 in1013.9 mb - 0.00 in0.0 mm 0.00 in0.0 mm
07:20 PM 27.9°F-2.3°C -21.8°F-29.9°C 10% 3.5 mph N5.6 kmh N 3.5 mph5.6 kmh 29.94 in1013.9 mb - 0.00 in0.0 mm 0.00 in0.0 mm
07:25 PM 27.7°F-2.4°C 22.0°F-5.6°C 79% 2.3 mph NNW3.7 kmh NNW 2.3 mph3.7 kmh 29.94 in1013.9 mb - 0.00 in0.0 mm 0.00 in0.0 mm
07:30 PM 27.6°F-2.4°C 26.6°F-3.0°C 96% 2.3 mph NNW3.7 kmh NNW 2.3 mph3.7 kmh 29.94 in1013.9 mb - 0.00 in0.0 mm 0.00 in0.0 mm
07:35 PM 27.5°F-2.5°C 26.5°F-3.1°C 96% 1.2 mph NW1.9 kmh NW 1.2 mph1.9 kmh 29.94 in1013.9 mb - 0.00 in0.0 mm 0.00 in0.0 mm
07:40 PM 27.3°F-2.6°C 26.6°F-3.0°C 97% 2.3 mph NNW3.7 kmh NNW 2.3 mph3.7 kmh 29.94 in1013.9 mb - 0.00 in0.0 mm 0.00 in0.0 mm
07:45 PM 27.3°F-2.6°C 26.6°F-3.0°C 97% 1.2 mph NW1.9 kmh NW 1.2 mph1.9 kmh 29.94 in1013.9 mb - 0.00 in0.0 mm 0.00 in0.0 mm
07:50 PM 27.3°F-2.6°C 26.6°F-3.0°C 97% 1.2 mph NW1.9 kmh NW 1.2 mph1.9 kmh 29.94 in1013.9 mb - 0.00 in0.0 mm 0.00 in0.0 mm
07:55 PM 27.3°F-2.6°C -22.2°F-30.1°C 10% 2.3 mph N3.7 kmh N 2.3 mph3.7 kmh 29.94 in1013.9 mb - 0.00 in0.0 mm 0.00 in0.0 mm
08:00 PM 27.1°F-2.7°C -22.4°F-30.2°C 10% 1.2 mph N1.9 kmh N 1.2 mph1.9 kmh 30.00 in1015.9 mb - 0.00 in0.0 mm 0.00 in0.0 mm
08:10 PM 27.1°F-2.7°C -22.4°F-30.2°C 10% 1.2 mph N1.9 kmh N 1.2 mph1.9 kmh 30.00 in1015.9 mb - 0.00 in0.0 mm 0.00 in0.0 mm
08:15 PM 27.0°F-2.8°C -22.5°F-30.3°C 10% 2.3 mph NNW3.7 kmh NNW 2.3 mph3.7 kmh 29.94 in1013.9 mb - 0.00 in0.0 mm 0.00 in0.0 mm
08:20 PM 26.8°F-2.9°C -22.7°F-30.4°C 10% 1.2 mph N1.9 kmh N 1.2 mph1.9 kmh 29.94 in1013.9 mb - 0.00 in0.0 mm 0.00 in0.0 mm
08:25 PM 26.8°F-2.9°C -22.7°F-30.4°C 10% 1.2 mph N1.9 kmh N 3.5 mph5.6 kmh 29.94 in1013.9 mb - 0.00 in0.0 mm 0.00 in0.0 mm
08:30 PM 26.6°F-3.0°C -22.8°F-30.4°C 10% 3.5 mph N5.6 kmh N 3.5 mph5.6 kmh 29.94 in1013.9 mb - 0.00 in0.0 mm 0.00 in0.0 mm
08:35 PM 26.4°F-3.1°C -22.9°F-30.5°C 10% 1.2 mph WNW1.9 kmh WNW 1.2 mph1.9 kmh 29.94 in1013.9 mb - 0.00 in0.0 mm 0.00 in0.0 mm
08:40 PM 26.2°F-3.2°C -23.1°F-30.6°C 10% 3.5 mph NW5.6 kmh NW 3.5 mph5.6 kmh 29.94 in1013.9 mb - 0.00 in0.0 mm 0.00 in0.0 mm
08:45 PM 26.2°F-3.2°C -23.1°F-30.6°C 10% 3.5 mph NW5.6 kmh NW 3.5 mph5.6 kmh 29.94 in1013.9 mb - 0.00 in0.0 mm 0.00 in0.0 mm
08:50 PM 26.1°F-3.3°C -23.2°F-30.7°C 10% 1.2 mph NW1.9 kmh NW 1.2 mph1.9 kmh 29.94 in1013.9 mb - 0.00 in0.0 mm 0.00 in0.0 mm
08:55 PM 25.9°F-3.4°C 18.4°F-7.6°C 73% 1.2 mph NW1.9 kmh NW 1.2 mph1.9 kmh 29.94 in1013.9 mb - 0.00 in0.0 mm 0.00 in0.0 mm
09:00 PM 25.7°F-3.5°C 24.7°F-4.1°C 96% 1.2 mph NW1.9 kmh NW 1.2 mph1.9 kmh 29.97 in1014.9 mb - 0.00 in0.0 mm 0.00 in0.0 mm
09:10 PM 25.3°F-3.7°C 24.9°F-3.9°C 98% 1.2 mph NW1.9 kmh NW 1.2 mph1.9 kmh 30.00 in1015.9 mb - 0.00 in0.0 mm 0.00 in0.0 mm
09:15 PM 25.2°F-3.8°C 24.9°F-3.9°C 99% Calm Calm -- 30.00 in1015.9 mb - 0.00 in0.0 mm 0.00 in0.0 mm
09:20 PM 25.2°F-3.8°C 24.9°F-3.9°C 99% Calm Calm 1.2 mph1.9 kmh 30.00 in1015.9 mb - 0.00 in0.0 mm 0.00 in0.0 mm
09:25 PM 25.2°F-3.8°C 24.9°F-3.9°C 99% 1.2 mph NW1.9 kmh NW 1.2 mph1.9 kmh 30.00 in1015.9 mb - 0.00 in0.0 mm 0.00 in0.0 mm
09:30 PM 25.0°F-3.9°C 23.0°F-5.0°C 92% 1.2 mph NW1.9 kmh NW 1.2 mph1.9 kmh 30.00 in1015.9 mb - 0.00 in0.0 mm 0.00 in0.0 mm
09:35 PM 24.8°F-4.0°C 23.1°F-4.9°C 93% 1.2 mph NW1.9 kmh NW 1.2 mph1.9 kmh 30.00 in1015.9 mb - 0.00 in0.0 mm 0.00 in0.0 mm
09:40 PM 24.8°F-4.0°C 23.1°F-4.9°C 93% 1.2 mph NW1.9 kmh NW 1.2 mph1.9 kmh 30.00 in1015.9 mb - 0.00 in0.0 mm 0.00 in0.0 mm
09:45 PM 24.8°F-4.0°C 21.2°F-6.0°C 86% Calm Calm -- 30.00 in1015.9 mb - 0.00 in0.0 mm 0.00 in0.0 mm
09:50 PM 24.8°F-4.0°C 23.1°F-4.9°C 93% Calm Calm -- 29.94 in1013.9 mb - 0.00 in0.0 mm 0.00 in0.0 mm
09:55 PM 24.6°F-4.1°C 22.1°F-5.5°C 90% 1.2 mph NW1.9 kmh NW 1.2 mph1.9 kmh 29.94 in1013.9 mb - 0.00 in0.0 mm 0.00 in0.0 mm
10:00 PM 24.4°F-4.2°C 21.1°F-6.1°C 87% 1.2 mph NW1.9 kmh NW 1.2 mph1.9 kmh 29.94 in1013.9 mb - 0.00 in0.0 mm 0.00 in0.0 mm
10:10 PM 24.8°F-4.0°C 23.1°F-4.9°C 93% 1.2 mph NW1.9 kmh NW 1.2 mph1.9 kmh 30.00 in1015.9 mb - 0.00 in0.0 mm 0.00 in0.0 mm
10:15 PM 24.8°F-4.0°C 23.1°F-4.9°C 93% 1.2 mph NW1.9 kmh NW 1.2 mph1.9 kmh 30.00 in1015.9 mb - 0.00 in0.0 mm 0.00 in0.0 mm
10:20 PM 24.8°F-4.0°C 23.1°F-4.9°C 93% 1.2 mph NW1.9 kmh NW 1.2 mph1.9 kmh 30.00 in1015.9 mb - 0.00 in0.0 mm 0.00 in0.0 mm
10:25 PM 25.2°F-3.8°C 22.9°F-5.1°C 91% 1.2 mph NNW1.9 kmh NNW 1.2 mph1.9 kmh 30.00 in1015.9 mb - 0.00 in0.0 mm 0.00 in0.0 mm
10:30 PM 25.0°F-3.9°C 23.0°F-5.0°C 92% 1.2 mph NNW1.9 kmh NNW 1.2 mph1.9 kmh 30.00 in1015.9 mb - 0.00 in0.0 mm 0.00 in0.0 mm
10:35 PM 25.0°F-3.9°C 23.0°F-5.0°C 92% 1.2 mph NNW1.9 kmh NNW 1.2 mph1.9 kmh 30.00 in1015.9 mb - 0.00 in0.0 mm 0.00 in0.0 mm
10:40 PM 25.0°F-3.9°C 23.0°F-5.0°C 92% 1.2 mph NNW1.9 kmh NNW 1.2 mph1.9 kmh 30.00 in1015.9 mb - 0.00 in0.0 mm 0.00 in0.0 mm
10:45 PM 24.6°F-4.1°C 21.3°F-5.9°C 87% Calm Calm -- 30.00 in1015.9 mb - 0.00 in0.0 mm 0.00 in0.0 mm
10:50 PM 24.8°F-4.0°C 22.3°F-5.4°C 90% 1.2 mph NNW1.9 kmh NNW 1.2 mph1.9 kmh 29.97 in1014.9 mb - 0.00 in0.0 mm 0.00 in0.0 mm
10:55 PM 25.0°F-3.9°C 23.0°F-5.0°C 92% 1.2 mph NNW1.9 kmh NNW 1.2 mph1.9 kmh 29.94 in1013.9 mb - 0.00 in0.0 mm 0.00 in0.0 mm
11:00 PM 25.2°F-3.8°C 24.9°F-3.9°C 99% 1.2 mph NNW1.9 kmh NNW 1.2 mph1.9 kmh 30.00 in1015.9 mb - 0.00 in0.0 mm 0.00 in0.0 mm
11:10 PM 25.4°F-3.7°C 23.1°F-4.9°C 91% 1.2 mph NNW1.9 kmh NNW 1.2 mph1.9 kmh 30.00 in1015.9 mb - 0.00 in0.0 mm 0.00 in0.0 mm
11:15 PM 25.5°F-3.6°C 23.0°F-5.0°C 90% Calm Calm -- 30.00 in1015.9 mb - 0.00 in0.0 mm 0.00 in0.0 mm
11:20 PM 25.5°F-3.6°C 23.0°F-5.0°C 90% 1.2 mph NNW1.9 kmh NNW 1.2 mph1.9 kmh 30.00 in1015.9 mb - 0.00 in0.0 mm 0.00 in0.0 mm
11:25 PM 25.9°F-3.4°C 24.9°F-3.9°C 96% Calm Calm 1.2 mph1.9 kmh 30.00 in1015.9 mb - 0.00 in0.0 mm 0.00 in0.0 mm
11:30 PM 25.9°F-3.4°C 24.9°F-3.9°C 96% Calm Calm -- 30.00 in1015.9 mb - 0.00 in0.0 mm 0.00 in0.0 mm
11:35 PM 25.9°F-3.4°C 23.1°F-4.9°C 89% 1.2 mph NNW1.9 kmh NNW 1.2 mph1.9 kmh 30.00 in1015.9 mb - 0.00 in0.0 mm 0.00 in0.0 mm
11:40 PM 25.9°F-3.4°C 23.1°F-4.9°C 89% 1.2 mph NNW1.9 kmh NNW 1.2 mph1.9 kmh 29.94 in1013.9 mb - 0.00 in0.0 mm 0.00 in0.0 mm
11:45 PM 25.9°F-3.4°C 23.1°F-4.9°C 89% Calm Calm 1.2 mph1.9 kmh 29.94 in1013.9 mb - 0.00 in0.0 mm 0.00 in0.0 mm
11:50 PM 25.9°F-3.4°C 23.1°F-4.9°C 89% Calm Calm -- 29.94 in1013.9 mb - 0.00 in0.0 mm 0.00 in0.0 mm
11:55 PM 25.9°F-3.4°C 23.1°F-4.9°C 89% 1.2 mph NNW1.9 kmh NNW 1.2 mph1.9 kmh 29.94 in1013.9 mb - 0.00 in0.0 mm 0.00 in0.0 mm